Time;durP1;ratioP1;P1;durP2;ratioP2;P2;SDS_P1;SDS_P2;PMS_P1;PMS_P2;Temp;Humidity;BMP_temperature;BMP_pressure;BME280_temperature;BME280_humidity;BME280_pressure;Samples;Min_cycle;Max_cycle;Signal;HPM_P1;HPM_P2
2022/11/09 00:01:33;;;;;;;22.25;4.07;;;;;;;13.71;100.00;99921.94;5109750;28;20091;-65
2022/11/09 00:04:00;;;;;;;19.98;3.90;;;;;;;13.73;100.00;99936.03;5094226;28;20433;-65
2022/11/09 00:06:27;;;;;;;20.30;5.00;;;;;;;13.72;100.00;99926.28;5089200;28;20499;-66
2022/11/09 00:08:52;;;;;;;20.13;4.55;;;;;;;13.65;100.00;99922.09;5083157;28;20039;-65
2022/11/09 00:11:18;;;;;;;18.27;4.32;;;;;;;13.74;100.00;99931.44;5083536;28;20402;-65
2022/11/09 00:13:45;;;;;;;19.10;4.18;;;;;;;13.72;100.00;99923.56;5090392;28;20486;-65
2022/11/09 00:16:13;;;;;;;23.83;4.95;;;;;;;13.73;100.00;99932.50;5094255;28;20043;-65
2022/11/09 00:18:44;;;;;;;21.85;4.68;;;;;;;13.72;100.00;99928.97;5095198;28;20031;-65
2022/11/09 00:21:15;;;;;;;23.27;4.30;;;;;;;13.72;100.00;99928.16;5067082;28;20518;-65
2022/11/09 00:23:41;;;;;;;17.17;4.20;;;;;;;13.73;100.00;99927.91;5096198;28;20123;-65
2022/11/09 00:26:08;;;;;;;18.92;4.80;;;;;;;13.68;100.00;99918.91;5081411;28;20501;-66
2022/11/09 00:28:34;;;;;;;24.60;4.30;;;;;;;13.74;100.00;99912.50;5109081;28;20039;-66
2022/11/09 00:31:00;;;;;;;18.95;4.30;;;;;;;13.71;100.00;99905.72;5094745;28;20493;-66
2022/11/09 00:33:26;;;;;;;24.50;4.45;;;;;;;13.73;100.00;99911.69;5091390;28;20413;-65
2022/11/09 00:35:52;;;;;;;22.60;4.32;;;;;;;13.73;100.00;99903.56;5079365;28;20037;-65
2022/11/09 00:38:17;;;;;;;21.20;4.38;;;;;;;13.77;100.00;99901.22;5086574;28;20043;-65
2022/11/09 00:40:42;;;;;;;23.40;5.28;;;;;;;13.62;100.00;99874.72;5102704;28;20111;-65
2022/11/09 00:43:08;;;;;;;18.92;4.25;;;;;;;13.65;100.00;99881.53;5098969;28;20547;-65
2022/11/09 00:45:34;;;;;;;22.65;4.80;;;;;;;13.77;100.00;99898.50;5091513;28;20447;-65
2022/11/09 00:48:00;;;;;;;17.50;4.70;;;;;;;13.77;100.00;99893.09;5059972;28;20039;-65
2022/11/09 00:50:25;;;;;;;22.10;4.35;;;;;;;13.78;100.00;99890.16;5106108;28;20035;-65
2022/11/09 00:52:50;;;;;;;23.50;4.45;;;;;;;13.82;100.00;99893.22;5102120;28;20031;-65
2022/11/09 00:55:16;;;;;;;19.58;5.10;;;;;;;13.80;100.00;99895.31;5099150;28;20041;-65
2022/11/09 00:57:41;;;;;;;18.77;4.30;;;;;;;13.81;100.00;99886.16;5089024;28;20144;-65
2022/11/09 01:00:07;;;;;;;20.15;4.55;;;;;;;13.72;100.00;99874.09;5094589;28;20056;-65
2022/11/09 01:02:32;;;;;;;18.25;3.95;;;;;;;13.60;100.00;99866.84;5109547;28;20042;-66
2022/11/09 01:04:58;;;;;;;17.30;4.30;;;;;;;13.79;100.00;99880.16;5077763;28;20016;-65
2022/11/09 01:07:24;;;;;;;21.65;4.20;;;;;;;13.62;100.00;99858.50;5087761;28;20047;-66
2022/11/09 01:09:49;;;;;;;17.75;4.35;;;;;;;13.64;100.00;99861.78;5083235;28;20028;-65
2022/11/09 01:12:15;;;;;;;22.40;4.50;;;;;;;13.75;100.00;99879.84;5081750;28;20513;-65
2022/11/09 01:14:40;;;;;;;24.77;4.32;;;;;;;13.74;100.00;99869.25;5089361;28;20039;-65
2022/11/09 01:17:06;;;;;;;18.05;3.88;;;;;;;13.71;100.00;99877.84;5093806;28;20036;-66
2022/11/09 01:19:31;;;;;;;22.95;3.88;;;;;;;13.68;100.00;99875.66;5107875;28;20398;-65
2022/11/09 01:21:56;;;;;;;21.83;3.97;;;;;;;13.68;100.00;99868.34;5097267;28;20039;-65
2022/11/09 01:24:22;;;;;;;15.10;4.05;;;;;;;13.53;100.00;99857.25;5052132;28;20554;-65
2022/11/09 01:26:47;;;;;;;20.08;4.15;;;;;;;13.59;100.00;99859.00;5103312;28;20110;-65
2022/11/09 01:29:13;;;;;;;12.48;3.83;;;;;;;13.66;100.00;99858.84;5080337;28;20060;-65
2022/11/09 01:31:41;;;;;;;19.48;3.92;;;;;;;13.60;100.00;99857.91;5108045;28;20027;-66
2022/11/09 01:34:06;;;;;;;17.55;3.88;;;;;;;13.62;100.00;99869.31;5075351;28;20440;-65
2022/11/09 01:36:32;;;;;;;14.18;4.05;;;;;;;13.46;100.00;99843.88;5107645;28;20020;-65
2022/11/09 01:38:57;;;;;;;22.13;3.90;;;;;;;13.61;100.00;99865.81;5079877;28;20434;-65
2022/11/09 01:41:26;;;;;;;18.50;4.25;;;;;;;13.58;100.00;99854.66;5103744;28;20035;-66
2022/11/09 01:44:09;;;;;;;22.10;4.28;;;;;;;13.62;100.00;99850.41;5083546;28;20023;-65
2022/11/09 01:46:53;;;;;;;16.25;3.75;;;;;;;13.62;100.00;99853.09;5079432;28;20026;-65
2022/11/09 01:49:41;;;;;;;16.58;3.92;;;;;;;13.65;100.00;99857.22;5110034;28;20050;-65
2022/11/09 01:52:20;;;;;;;18.52;3.88;;;;;;;13.61;100.00;99857.69;5098573;28;20023;-65
2022/11/09 01:54:51;;;;;;;13.73;3.70;;;;;;;13.60;100.00;99860.63;5100230;28;20074;-65
2022/11/09 01:57:21;;;;;;;15.90;3.60;;;;;;;13.59;100.00;99854.41;5105379;28;20028;-65
2022/11/09 01:59:53;;;;;;;15.68;4.00;;;;;;;13.51;100.00;99830.47;5094413;28;20044;-65
2022/11/09 02:02:19;;;;;;;17.58;3.88;;;;;;;13.31;100.00;99792.25;5105918;28;20081;-65
2022/11/09 02:05:07;;;;;;;18.25;3.92;;;;;;;13.56;100.00;99837.84;5100495;28;20398;-65
2022/11/09 02:07:34;;;;;;;12.70;3.83;;;;;;;13.54;100.00;99824.59;5077353;28;20058;-65
2022/11/09 02:10:02;;;;;;;18.13;4.28;;;;;;;13.55;100.00;99822.69;5089934;28;20407;-65
2022/11/09 02:12:32;;;;;;;17.42;4.18;;;;;;;13.54;100.00;99821.03;5080401;28;20036;-64
2022/11/09 02:15:02;;;;;;;15.43;3.97;;;;;;;13.55;100.00;99822.69;5082403;28;20020;-65
2022/11/09 02:17:28;;;;;;;16.58;5.10;;;;;;;13.52;100.00;99821.28;5107081;28;20023;-65
2022/11/09 02:19:56;;;;;;;13.95;4.05;;;;;;;13.54;100.00;99827.28;5078421;28;20562;-65
2022/11/09 02:22:22;;;;;;;19.48;3.97;;;;;;;13.52;100.00;99824.00;5091120;28;20060;-64
2022/11/09 02:24:47;;;;;;;16.23;4.00;;;;;;;13.51;100.00;99826.94;5104800;28;20217;-65
2022/11/09 02:27:12;;;;;;;18.30;4.28;;;;;;;13.53;100.00;99827.50;5084088;28;20035;-65
2022/11/09 02:29:51;;;;;;;16.85;4.00;;;;;;;13.57;100.00;99817.84;5093631;28;20148;-65
2022/11/09 02:32:23;;;;;;;16.10;4.15;;;;;;;13.61;100.00;99817.16;5082460;28;20662;-65
2022/11/09 02:34:49;;;;;;;21.63;4.30;;;;;;;13.66;100.00;99815.59;5105500;28;20129;-65
2022/11/09 02:37:28;;;;;;;22.70;3.95;;;;;;;13.69;100.00;99817.81;5090258;28;20637;-65
2022/11/09 02:39:54;;;;;;;21.63;3.90;;;;;;;13.70;100.00;99825.66;5098138;28;20115;-65
2022/11/09 02:42:20;;;;;;;22.98;4.30;;;;;;;13.56;100.00;99800.00;5091130;28;20027;-65
2022/11/09 02:44:54;;;;;;;18.38;4.07;;;;;;;13.71;100.00;99816.50;5104085;28;20032;-65
2022/11/09 02:47:19;;;;;;;17.45;3.70;;;;;;;13.78;100.00;99821.75;5082582;28;20020;-65
2022/11/09 02:49:45;;;;;;;13.95;3.72;;;;;;;13.77;100.00;99823.63;5111654;28;20044;-68
2022/11/09 02:52:10;;;;;;;12.57;3.60;;;;;;;13.82;100.00;99829.13;5081012;28;20055;-65
2022/11/09 02:54:36;;;;;;;19.67;4.22;;;;;;;13.82;100.00;99817.50;5106908;28;20532;-65
2022/11/09 02:57:01;;;;;;;16.15;3.78;;;;;;;13.78;100.00;99810.94;5106256;28;20020;-65
2022/11/09 02:59:27;;;;;;;16.83;3.70;;;;;;;13.86;100.00;99816.75;5081479;28;20043;-65
2022/11/09 03:01:52;;;;;;;15.30;3.75;;;;;;;13.89;100.00;99815.44;5092897;28;20122;-65
2022/11/09 03:04:17;;;;;;;15.98;3.60;;;;;;;13.90;100.00;99817.06;5099775;28;20034;-66
2022/11/09 03:06:43;;;;;;;18.30;4.03;;;;;;;13.85;100.00;99814.31;5105493;28;20024;-66
2022/11/09 03:09:10;;;;;;;20.98;4.15;;;;;;;13.86;100.00;99805.94;5088656;28;20032;-66
2022/11/09 03:11:37;;;;;;;16.60;3.95;;;;;;;13.85;100.00;99801.59;5079996;28;20027;-65
2022/11/09 03:14:03;;;;;;;18.63;4.07;;;;;;;13.90;100.00;99803.56;5092670;28;20081;-65
2022/11/09 03:16:29;;;;;;;14.15;3.53;;;;;;;13.79;100.00;99786.34;5100857;28;20549;-65
2022/11/09 03:18:55;;;;;;;18.00;3.97;;;;;;;13.95;100.00;99809.06;5069226;28;20111;-64
2022/11/09 03:21:21;;;;;;;19.63;3.63;;;;;;;13.95;100.00;99805.53;5108384;28;20032;-64
2022/11/09 03:23:47;;;;;;;15.88;3.63;;;;;;;13.94;100.00;99799.31;5062125;28;20512;-65
2022/11/09 03:26:12;;;;;;;20.35;4.00;;;;;;;13.95;100.00;99803.66;5109761;28;20034;-64
2022/11/09 03:28:38;;;;;;;21.55;3.47;;;;;;;13.91;100.00;99797.09;5067154;28;20036;-64
2022/11/09 03:31:04;;;;;;;17.15;3.83;;;;;;;14.01;100.00;99807.25;5083722;28;20028;-65
2022/11/09 03:33:29;;;;;;;21.98;4.35;;;;;;;14.00;100.00;99806.41;5090910;28;20118;-65
2022/11/09 03:35:55;;;;;;;22.17;3.88;;;;;;;14.03;100.00;99800.53;5097181;28;20081;-64
2022/11/09 03:38:20;;;;;;;17.38;3.75;;;;;;;14.04;100.00;99806.78;5090277;28;20035;-65
2022/11/09 03:40:45;;;;;;;18.42;4.20;;;;;;;14.05;100.00;99801.09;5101936;28;20027;-65
2022/11/09 03:43:11;;;;;;;17.83;4.07;;;;;;;14.07;100.00;99803.56;5082152;28;20139;-65
2022/11/09 03:45:36;;;;;;;19.83;3.90;;;;;;;14.09;100.00;99810.34;5109658;28;20031;-64
2022/11/09 03:48:02;;;;;;;19.10;3.63;;;;;;;14.05;100.00;99803.00;5078920;28;20023;-64
2022/11/09 03:50:30;;;;;;;17.92;3.88;;;;;;;14.10;100.00;99801.19;5089095;28;20068;-65
2022/11/09 03:52:56;;;;;;;13.07;3.75;;;;;;;13.99;100.00;99783.16;5103947;28;20043;-65
2022/11/09 03:55:22;;;;;;;14.85;3.40;;;;;;;13.54;100.00;99716.47;5081254;28;20028;-65
2022/11/09 03:57:48;;;;;;;17.83;4.05;;;;;;;14.10;100.00;99801.19;5092111;28;20041;-65
2022/11/09 04:00:16;;;;;;;16.55;4.22;;;;;;;14.14;100.00;99804.22;5079725;28;20395;-65
2022/11/09 04:02:41;;;;;;;18.75;4.07;;;;;;;14.07;100.00;99800.84;5105099;28;20036;-65
2022/11/09 04:05:08;;;;;;;18.67;4.20;;;;;;;14.05;100.00;99786.75;5105322;28;20160;-65
2022/11/09 04:07:33;;;;;;;17.67;3.55;;;;;;;14.08;100.00;99797.91;5079577;28;20043;-64
2022/11/09 04:09:59;;;;;;;21.42;4.28;;;;;;;14.16;100.00;99791.25;5109656;28;20038;-64
2022/11/09 04:12:24;;;;;;;15.85;3.90;;;;;;;14.17;100.00;99790.22;5099341;28;20020;-65
2022/11/09 04:14:49;;;;;;;18.75;3.80;;;;;;;14.24;100.00;99795.44;5103752;28;20024;-65
2022/11/09 04:17:15;;;;;;;17.83;3.78;;;;;;;14.18;100.00;99785.63;5087753;28;20028;-65
2022/11/09 04:19:40;;;;;;;15.63;4.55;;;;;;;14.14;100.00;99795.28;5078415;28;20134;-65
2022/11/09 04:22:06;;;;;;;19.02;3.78;;;;;;;14.12;100.00;99802.81;5109642;28;20084;-65
2022/11/09 04:24:32;;;;;;;22.92;4.30;;;;;;;14.10;100.00;99800.34;5081664;28;20122;-65
2022/11/09 04:26:57;;;;;;;19.17;4.32;;;;;;;14.12;100.00;99803.66;5102230;28;20395;-65
2022/11/09 04:29:23;;;;;;;16.77;4.18;;;;;;;14.15;100.00;99805.03;5088933;28;20035;-65
2022/11/09 04:31:48;;;;;;;18.38;4.10;;;;;;;14.17;100.00;99797.47;5078041;28;20036;-65
2022/11/09 04:34:15;;;;;;;23.08;4.35;;;;;;;14.03;100.00;99791.59;5108303;28;20063;-65
2022/11/09 04:36:43;;;;;;;16.20;4.15;;;;;;;14.13;100.00;99818.00;5100858;28;20024;-65
2022/11/09 04:39:09;;;;;;;22.13;4.20;;;;;;;14.19;100.00;99812.41;5083087;28;20505;-65
2022/11/09 04:41:34;;;;;;;18.20;4.38;;;;;;;14.12;100.00;99813.66;5107922;28;20023;-65
2022/11/09 04:43:59;;;;;;;20.42;4.45;;;;;;;14.15;100.00;99813.16;5077167;28;20032;-65
2022/11/09 04:46:26;;;;;;;19.48;3.85;;;;;;;14.15;100.00;99816.69;5086402;28;20036;-65
2022/11/09 04:48:54;;;;;;;26.50;4.53;;;;;;;14.11;100.00;99815.53;5100321;28;20099;-64
2022/11/09 04:51:19;;;;;;;20.15;4.30;;;;;;;14.09;100.00;99818.47;5098327;28;20043;-64
2022/11/09 04:53:45;;;;;;;16.25;3.83;;;;;;;14.05;100.00;99817.34;5090560;28;20031;-65
2022/11/09 04:56:11;;;;;;;20.55;4.00;;;;;;;13.98;100.00;99816.69;5093532;28;20032;-64
2022/11/09 04:58:36;;;;;;;23.63;4.32;;;;;;;13.95;100.00;99817.16;5086731;28;20479;-64
2022/11/09 05:01:11;;;;;;;15.40;3.72;;;;;;;13.98;100.00;99834.81;5103259;28;20084;-64
2022/11/09 05:03:36;;;;;;;;;;;;;;;13.97;100.00;99825.88;5078915;28;20024;-64
2022/11/09 05:06:30;;;;;;;19.33;4.32;;;;;;;13.93;100.00;99835.53;5090154;28;20402;-65
2022/11/09 05:08:52;;;;;;;19.95;4.57;;;;;;;13.91;100.00;99834.97;5101151;28;20047;-64
2022/11/09 05:11:17;;;;;;;22.08;4.50;;;;;;;13.81;100.00;99824.78;5080811;28;20035;-64
2022/11/09 05:13:43;;;;;;;16.40;4.22;;;;;;;13.82;100.00;99839.94;5108844;28;20027;-64
2022/11/09 05:16:08;;;;;;;18.40;3.72;;;;;;;13.77;100.00;99839.84;5095585;28;20028;-64
2022/11/09 05:18:34;;;;;;;15.52;4.15;;;;;;;13.84;100.00;99839.69;5086821;28;20471;-63
2022/11/09 05:21:01;;;;;;;22.08;4.35;;;;;;;13.92;100.00;99855.53;5102384;28;20043;-63
2022/11/09 05:26:10;;;;;;;17.05;3.80;;;;;;;13.97;100.00;99852.06;5079180;28;20026;-65
2022/11/09 05:28:36;;;;;;;19.63;4.28;;;;;;;13.99;100.00;99844.53;5086495;28;20111;-64
2022/11/09 05:31:01;;;;;;;26.58;4.50;;;;;;;13.98;100.00;99837.50;5084547;28;20467;-65
2022/11/09 05:33:27;;;;;;;14.93;4.13;;;;;;;14.00;100.00;99852.41;5079528;28;20024;-65
2022/11/09 05:35:56;;;;;;;22.20;4.25;;;;;;;13.88;100.00;99835.44;5073423;28;20027;-65
2022/11/09 05:38:23;;;;;;;24.70;4.25;;;;;;;13.95;100.00;99860.44;5079475;28;20065;-65
2022/11/09 05:40:53;;;;;;;23.40;4.30;;;;;;;13.70;100.00;99814.03;5064533;28;20032;-64
2022/11/09 05:43:19;;;;;;;28.52;4.15;;;;;;;13.83;100.00;99860.50;5080219;28;20382;-64
2022/11/09 05:45:48;;;;;;;27.35;3.95;;;;;;;13.85;100.00;99863.78;5095212;28;20123;-65
2022/11/09 05:48:16;;;;;;;22.33;4.05;;;;;;;13.86;100.00;99867.31;5107986;28;20036;-64
2022/11/09 05:50:42;;;;;;;18.58;3.88;;;;;;;13.84;100.00;99872.13;5099904;28;20041;-65
2022/11/09 05:53:09;;;;;;;21.23;3.75;;;;;;;13.85;100.00;99862.97;5081492;28;20028;-64
2022/11/09 05:55:34;;;;;;;18.40;4.20;;;;;;;13.87;100.00;99860.84;5107539;28;20032;-64
2022/11/09 05:58:00;;;;;;;23.13;4.07;;;;;;;13.76;100.00;99840.09;5076551;28;20502;-65
2022/11/09 06:00:26;;;;;;;21.60;4.10;;;;;;;13.95;100.00;99865.84;5087657;28;20116;-65
2022/11/09 06:02:51;;;;;;;23.60;4.20;;;;;;;13.93;100.00;99864.44;5101003;28;20051;-65
2022/11/09 06:05:18;;;;;;;23.05;3.85;;;;;;;13.92;100.00;99868.22;5098509;28;20055;-65
2022/11/09 06:07:44;;;;;;;21.02;3.63;;;;;;;13.82;100.00;99864.28;5090124;28;20548;-65
2022/11/09 06:10:10;;;;;;;18.88;4.40;;;;;;;13.84;100.00;99864.03;5076816;28;20046;-65
2022/11/09 06:12:35;;;;;;;26.65;4.43;;;;;;;13.77;100.00;99866.88;5086334;28;20031;-65
2022/11/09 06:15:04;;;;;;;21.85;4.32;;;;;;;13.78;100.00;99867.72;5102216;28;20031;-65
2022/11/09 06:17:29;;;;;;;21.23;4.05;;;;;;;13.75;100.00;99868.22;5096902;28;20494;-65
2022/11/09 06:19:54;;;;;;;24.50;3.63;;;;;;;13.69;100.00;99869.16;5089758;28;20042;-65
2022/11/09 06:22:20;;;;;;;20.10;3.63;;;;;;;13.68;100.00;99862.94;5078232;28;20031;-66
2022/11/09 06:24:45;;;;;;;33.83;4.07;;;;;;;13.61;100.00;99871.22;5085030;28;20455;-64
2022/11/09 06:27:11;;;;;;;18.25;3.40;;;;;;;13.57;100.00;99867.31;5103110;28;20038;-65
2022/11/09 06:29:36;;;;;;;23.65;3.40;;;;;;;13.40;100.00;99853.75;5077933;28;20102;-65
2022/11/09 06:32:01;;;;;;;21.10;3.50;;;;;;;13.51;100.00;99862.91;5072997;28;20118;-66
2022/11/09 06:34:27;;;;;;;26.23;3.95;;;;;;;13.54;100.00;99867.84;5097310;28;20034;-65
2022/11/09 06:36:52;;;;;;;27.15;3.85;;;;;;;13.37;100.00;99848.84;5066934;28;20071;-66
2022/11/09 06:39:17;;;;;;;24.17;4.00;;;;;;;13.50;100.00;99866.66;5104091;28;20039;-65
2022/11/09 06:41:43;;;;;;;20.52;3.78;;;;;;;13.49;100.00;99875.84;5094745;28;20110;-65
2022/11/09 06:44:08;;;;;;;21.40;3.78;;;;;;;13.50;100.00;99874.75;5089602;28;20035;-64
2022/11/09 06:46:34;;;;;;;18.83;3.55;;;;;;;13.39;100.00;99865.66;5079992;28;20036;-64
2022/11/09 06:48:59;;;;;;;27.83;4.28;;;;;;;13.47;100.00;99877.94;5100445;28;20057;-65
2022/11/09 06:51:25;;;;;;;23.88;3.67;;;;;;;13.44;100.00;99873.00;5105200;28;20039;-65
2022/11/09 06:53:50;;;;;;;17.65;3.55;;;;;;;13.39;100.00;99876.44;5076460;28;20032;-65
2022/11/09 06:56:16;;;;;;;21.95;3.88;;;;;;;13.40;100.00;99877.25;5088565;28;20581;-64
2022/11/09 06:58:41;;;;;;;28.83;3.50;;;;;;;13.40;100.00;99871.88;5098804;28;20023;-64
2022/11/09 07:01:12;;;;;;;29.25;3.80;;;;;;;13.39;100.00;99875.63;5078174;28;20084;-64
2022/11/09 07:03:38;;;;;;;27.25;4.03;;;;;;;13.42;100.00;99877.03;5086750;28;20414;-64
2022/11/09 07:06:06;;;;;;;23.85;3.80;;;;;;;13.44;100.00;99878.41;5075867;28;20060;-64
2022/11/09 07:08:33;;;;;;;21.80;3.53;;;;;;;13.45;100.00;99888.19;5087867;28;20081;-65
2022/11/09 07:11:06;;;;;;;30.15;4.35;;;;;;;13.44;100.00;99889.22;5084344;28;20066;-65
2022/11/09 07:13:32;;;;;;;26.60;4.07;;;;;;;13.44;100.00;99888.41;5077387;28;20028;-65
2022/11/09 07:15:57;;;;;;;29.50;3.88;;;;;;;13.45;100.00;99879.25;5089341;28;20035;-65
2022/11/09 07:18:23;;;;;;;22.98;4.10;;;;;;;13.42;100.00;99895.97;5077362;28;20036;-65
2022/11/09 07:20:48;;;;;;;23.67;4.25;;;;;;;13.42;100.00;99891.38;5084248;28;20036;-65
2022/11/09 07:23:17;;;;;;;25.13;3.70;;;;;;;13.44;100.00;99891.13;5084927;28;20416;-65
2022/11/09 07:25:42;;;;;;;25.58;3.72;;;;;;;13.46;100.00;99887.13;5077758;28;20060;-64
2022/11/09 07:28:10;;;;;;;26.38;3.90;;;;;;;13.54;100.00;99897.56;5089027;28;20491;-65
2022/11/09 07:30:37;;;;;;;27.95;4.60;;;;;;;13.55;100.00;99895.69;5080519;28;20039;-64
2022/11/09 07:33:09;;;;;;;19.35;3.65;;;;;;;13.60;100.00;99899.28;5081358;28;20037;-64
2022/11/09 07:35:34;;;;;;;27.65;5.35;;;;;;;13.62;100.00;99899.88;5087004;28;20035;-64
2022/11/09 07:38:00;;;;;;;21.60;3.58;;;;;;;13.67;100.00;99904.53;5074904;28;20028;-64
2022/11/09 07:40:26;;;;;;;23.42;3.40;;;;;;;13.63;100.00;99904.22;5086093;28;20036;-64
2022/11/09 07:42:51;;;;;;;22.85;3.65;;;;;;;13.68;100.00;99911.63;5079202;28;20044;-64
2022/11/09 07:45:16;;;;;;;26.27;4.32;;;;;;;13.73;100.00;99910.88;5077449;28;20102;-64
2022/11/09 07:47:42;;;;;;;25.63;3.83;;;;;;;13.73;100.00;99910.88;5087943;28;20042;-65
2022/11/09 07:50:08;;;;;;;19.20;3.83;;;;;;;13.74;100.00;99913.34;5076756;28;20120;-65
2022/11/09 07:52:33;;;;;;;24.27;3.85;;;;;;;13.71;100.00;99911.13;5087087;28;20053;-65
2022/11/09 07:54:58;;;;;;;21.25;3.35;;;;;;;13.75;100.00;99911.47;5082254;28;20040;-64
2022/11/09 07:57:24;;;;;;;27.70;4.15;;;;;;;13.67;100.00;99901.84;5079792;28;20474;-64
2022/11/09 07:59:52;;;;;;;21.83;3.60;;;;;;;13.75;100.00;99916.88;5071387;28;20052;-65
2022/11/09 08:02:19;;;;;;;25.33;4.05;;;;;;;13.75;100.00;99908.75;5076381;28;20055;-64
2022/11/09 08:04:44;;;;;;;20.55;3.13;;;;;;;13.82;100.00;99904.84;5085197;28;20572;-64
2022/11/09 08:07:09;;;;;;;26.05;3.80;;;;;;;13.83;100.00;99911.88;5084374;28;20031;-64
2022/11/09 08:09:35;;;;;;;28.70;4.13;;;;;;;13.83;100.00;99909.16;5077928;28;20036;-65
2022/11/09 08:12:00;;;;;;;23.35;3.90;;;;;;;13.84;100.00;99908.13;5088465;28;20394;-65
2022/11/09 08:14:25;;;;;;;23.50;3.88;;;;;;;13.88;100.00;99902.25;5078532;28;20028;-64
2022/11/09 08:16:51;;;;;;;31.17;4.10;;;;;;;13.92;100.00;99909.63;5066027;28;20040;-65
2022/11/09 08:19:17;;;;;;;28.05;3.88;;;;;;;13.94;100.00;99906.66;5085299;28;20372;-65
2022/11/09 08:21:42;;;;;;;25.75;3.63;;;;;;;13.96;100.00;99908.06;5075514;28;20048;-65
2022/11/09 08:24:07;;;;;;;24.83;3.88;;;;;;;13.83;100.00;99886.72;5089281;28;20033;-65
2022/11/09 08:26:33;;;;;;;25.77;4.35;;;;;;;13.85;100.00;99882.72;5077810;28;20241;-65
2022/11/09 08:28:58;;;;;;;30.55;4.10;;;;;;;13.83;100.00;99882.13;5081685;28;20032;-65
2022/11/09 08:31:23;;;;;;;24.45;3.63;;;;;;;14.05;100.00;99903.91;5084824;28;20035;-64
2022/11/09 08:33:49;;;;;;;20.00;3.83;;;;;;;14.12;100.00;99911.84;5074551;28;20533;-65
2022/11/09 08:36:16;;;;;;;27.30;4.18;;;;;;;14.12;100.00;99903.75;5087296;28;20024;-64
2022/11/09 08:38:43;;;;;;;24.95;4.40;;;;;;;14.20;100.00;99899.81;5078825;28;20046;-64
2022/11/09 08:41:10;;;;;;;20.60;3.13;;;;;;;14.20;100.00;99903.31;5081293;28;20420;-64
2022/11/09 08:43:36;;;;;;;26.38;4.05;;;;;;;14.30;100.00;99899.97;5087498;28;20081;-65
2022/11/09 08:46:03;;;;;;;20.25;3.60;;;;;;;14.39;100.00;99900.38;5075580;28;20036;-65
2022/11/09 08:48:29;;;;;;;24.38;3.47;;;;;;;14.52;100.00;99906.31;5086459;28;20403;-64
2022/11/09 08:50:57;;;;;;;20.15;3.50;;;;;;;14.54;100.00;99879.00;5080339;28;20056;-65
2022/11/09 08:53:25;;;;;;;23.23;4.28;;;;;;;14.82;100.00;99899.72;5078622;28;20036;-65
2022/11/09 08:55:53;;;;;;;24.80;3.88;;;;;;;14.91;100.00;99906.34;5088971;28;20029;-65
2022/11/09 08:58:19;;;;;;;15.98;3.00;;;;;;;14.91;100.00;99909.06;5076386;28;20028;-65
2022/11/09 09:00:45;;;;;;;23.80;3.70;;;;;;;15.02;100.00;99904.59;5095340;28;20079;-65
2022/11/09 09:03:10;;;;;;;21.35;3.63;;;;;;;15.06;100.00;99910.34;5085665;28;20097;-65
2022/11/09 09:05:36;;;;;;;22.13;3.45;;;;;;;14.93;100.00;99909.66;5078869;28;20028;-64
2022/11/09 09:08:05;;;;;;;26.23;4.47;;;;;;;14.94;100.00;99916.69;5109018;28;20110;-65
2022/11/09 09:10:34;;;;;;;20.08;2.97;;;;;;;14.97;100.00;99912.69;5098327;28;20081;-64
2022/11/09 09:13:00;;;;;;;24.77;3.45;;;;;;;14.79;100.00;99897.50;5102160;28;20027;-65
2022/11/09 09:15:25;;;;;;;20.27;3.65;;;;;;;14.94;100.00;99907.75;5105646;28;20084;-65
2022/11/09 09:17:50;;;;;;;21.45;3.20;;;;;;;14.88;100.00;99916.88;5095300;28;20036;-65
2022/11/09 09:20:16;;;;;;;18.48;3.70;;;;;;;14.79;100.00;99927.28;5108295;28;20051;-65
2022/11/09 09:22:42;;;;;;;18.23;3.33;;;;;;;14.75;100.00;99931.56;5081212;28;20478;-65
2022/11/09 09:25:08;;;;;;;20.20;3.20;;;;;;;14.65;100.00;99923.31;5100954;28;20042;-64
2022/11/09 09:27:33;;;;;;;23.73;3.60;;;;;;;14.57;100.00;99924.53;5106220;28;20405;-65
2022/11/09 09:29:59;;;;;;;21.20;3.75;;;;;;;14.62;100.00;99927.31;5076748;28;20575;-65
2022/11/09 09:32:25;;;;;;;17.38;3.25;;;;;;;14.60;100.00;99920.50;5107062;28;20066;-64
2022/11/09 09:34:50;;;;;;;22.88;3.20;;;;;;;14.65;100.00;99929.53;5082307;28;20410;-64
2022/11/09 09:37:17;;;;;;;24.65;3.67;;;;;;;14.72;100.00;99926.66;5099597;28;20107;-65
2022/11/09 09:39:42;;;;;;;21.33;3.25;;;;;;;14.74;100.00;99930.75;5089443;28;20067;-64
2022/11/09 09:42:15;;;;;;;20.30;3.03;;;;;;;14.86;100.00;99927.94;5060252;28;20058;-64
2022/11/09 09:45:01;;;;;;;23.27;3.50;;;;;;;14.88;100.00;99931.22;5104396;28;20047;-64
2022/11/09 09:47:49;;;;;;;18.95;3.10;;;;;;;14.91;100.00;99925.31;5105424;28;20501;-64
2022/11/09 09:51:01;;;;;;;17.73;2.70;;;;;;;14.95;100.00;99931.06;5078847;28;20035;-65
2022/11/09 09:53:32;;;;;;;19.80;3.85;;;;;;;15.00;100.00;99925.72;5037433;28;20061;-64
2022/11/09 09:56:27;;;;;;;21.75;3.45;;;;;;;15.03;100.00;99928.75;5065365;28;20032;-64
2022/11/09 09:59:17;;;;;;;23.38;3.65;;;;;;;14.89;100.00;99904.97;5040935;28;20195;-64
2022/11/09 10:01:43;;;;;;;21.42;3.35;;;;;;;15.06;100.00;99926.59;5032861;28;20492;-64
2022/11/09 10:04:21;;;;;;;21.92;3.28;;;;;;;15.03;100.00;99928.75;5028466;28;20049;-64
2022/11/09 10:07:24;;;;;;;18.52;3.42;;;;;;;15.06;100.00;99929.31;5020084;28;20029;-64
2022/11/09 10:10:16;;;;;;;14.07;2.53;;;;;;;14.96;100.00;99930.78;5013646;28;20052;-64
2022/11/09 10:13:06;;;;;;;19.65;3.33;;;;;;;14.97;100.00;99929.75;5041506;28;20124;-64
2022/11/09 10:15:47;;;;;;;16.40;3.33;;;;;;;14.93;100.00;99928.59;5043067;28;20431;-65
2022/11/09 10:18:45;;;;;;;19.08;2.83;;;;;;;14.92;100.00;99932.38;5032076;28;20040;-64
2022/11/09 10:21:47;;;;;;;15.10;2.80;;;;;;;14.90;100.00;99944.50;5037363;28;20571;-65
2022/11/09 10:24:31;;;;;;;22.00;3.40;;;;;;;14.81;100.00;99930.59;5056506;28;20045;-64
2022/11/09 10:26:59;;;;;;;15.73;3.03;;;;;;;14.79;100.00;99935.41;5057975;28;20115;-64
2022/11/09 10:29:35;;;;;;;23.25;3.15;;;;;;;14.79;100.00;99940.84;5055406;28;20067;-64
2022/11/09 10:32:13;;;;;;;16.27;2.95;;;;;;;14.80;100.00;99940.59;5073506;28;20566;-64
2022/11/09 10:34:47;;;;;;;20.25;3.28;;;;;;;14.79;100.00;99932.72;5097947;28;20031;-64
2022/11/09 10:37:22;;;;;;;20.60;3.50;;;;;;;14.63;100.00;99917.31;5099582;28;20124;-65
2022/11/09 10:40:17;;;;;;;22.50;4.00;;;;;;;14.75;100.00;99937.00;5107535;28;20028;-64
2022/11/09 10:42:58;;;;;;;17.42;3.53;;;;;;;14.69;100.00;99933.38;5071649;28;20027;-64
2022/11/09 10:45:33;;;;;;;16.88;3.72;;;;;;;14.67;100.00;99937.41;5083668;28;20390;-65
2022/11/09 10:47:59;;;;;;;23.92;3.67;;;;;;;14.66;100.00;99930.34;5093237;28;20020;-64
2022/11/09 10:50:28;;;;;;;16.27;3.88;;;;;;;14.65;100.00;99939.53;5081604;28;20034;-64
2022/11/09 10:53:11;;;;;;;22.73;3.50;;;;;;;14.65;100.00;99932.25;5087827;28;20031;-64
2022/11/09 10:55:37;;;;;;;21.63;3.90;;;;;;;14.61;100.00;99938.41;5109872;28;20433;-65
2022/11/09 10:58:33;;;;;;;18.60;3.53;;;;;;;14.67;100.00;99934.69;5079764;28;20085;-65
2022/11/09 11:01:16;;;;;;;24.30;3.42;;;;;;;14.67;100.00;99935.53;5105013;28;20047;-65
2022/11/09 11:03:42;;;;;;;19.95;4.28;;;;;;;14.65;100.00;99926.81;5110283;28;20046;-65
2022/11/09 11:06:25;;;;;;;20.73;3.17;;;;;;;14.68;100.00;99933.63;5079438;28;20459;-65
2022/11/09 11:08:54;;;;;;;19.25;3.80;;;;;;;14.68;100.00;99930.94;5106323;28;20028;-65
2022/11/09 11:11:23;;;;;;;16.90;3.97;;;;;;;14.67;100.00;99921.16;5088543;28;20024;-64
2022/11/09 11:13:57;;;;;;;16.10;3.22;;;;;;;14.70;100.00;99924.22;5098048;28;20400;-65
2022/11/09 11:16:31;;;;;;;18.92;3.35;;;;;;;14.73;100.00;99929.09;5083313;28;20037;-64
2022/11/09 11:18:57;;;;;;;18.02;3.30;;;;;;;14.73;100.00;99929.09;5105810;28;20024;-65
2022/11/09 11:21:24;;;;;;;21.80;3.92;;;;;;;14.80;100.00;99926.22;5089326;28;20070;-64
2022/11/09 11:24:19;;;;;;;21.58;3.78;;;;;;;14.86;100.00;99916.28;5097773;28;20074;-64
2022/11/09 11:26:50;;;;;;;15.70;3.28;;;;;;;14.91;100.00;99922.59;5106627;28;20044;-65